createdAt,value
2019-05-11T00:00:08.470Z,953.83
2019-05-11T00:01:08.460Z,953.79
2019-05-11T00:02:08.471Z,953.81
2019-05-11T00:03:08.510Z,953.83
2019-05-11T00:04:08.444Z,953.77
2019-05-11T00:05:08.454Z,953.74
2019-05-11T00:06:08.418Z,953.78
2019-05-11T00:07:08.409Z,953.77
2019-05-11T00:08:08.400Z,953.72
2019-05-11T00:09:08.385Z,953.74
2019-05-11T00:10:08.506Z,953.74
2019-05-11T00:11:08.347Z,953.71
2019-05-11T00:12:08.340Z,953.85
2019-05-11T00:13:09.005Z,953.87
2019-05-11T00:14:08.320Z,953.72
2019-05-11T00:15:08.300Z,953.75
2019-05-11T00:16:08.305Z,953.69
2019-05-11T00:17:08.280Z,953.60
2019-05-11T00:18:08.323Z,953.68
2019-05-11T00:19:08.328Z,953.65
2019-05-11T00:20:08.288Z,953.64
2019-05-11T00:21:08.239Z,953.70
2019-05-11T00:22:08.229Z,953.69
2019-05-11T00:23:08.912Z,953.67
2019-05-11T00:24:08.250Z,953.67
2019-05-11T00:25:08.203Z,953.65
2019-05-11T00:26:08.190Z,953.65
2019-05-11T00:27:08.175Z,953.59
2019-05-11T00:28:08.190Z,953.55
2019-05-11T00:29:08.169Z,953.46
2019-05-11T00:30:08.159Z,953.43
2019-05-11T00:31:08.129Z,953.42
2019-05-11T00:32:08.117Z,953.45
2019-05-11T00:33:08.400Z,953.45
2019-05-11T00:34:08.110Z,953.42
2019-05-11T00:35:08.089Z,953.53
2019-05-11T00:36:08.112Z,953.48
2019-05-11T00:37:08.070Z,953.46
2019-05-11T00:38:08.060Z,953.45
2019-05-11T00:39:08.078Z,953.41
2019-05-11T00:40:14.550Z,953.45
2019-05-11T00:41:09.020Z,953.38
2019-05-11T00:42:08.006Z,953.38
2019-05-11T00:43:08.143Z,953.38
2019-05-11T00:44:08.011Z,953.36
2019-05-11T00:45:07.978Z,953.36
2019-05-11T00:46:07.970Z,953.33
2019-05-11T00:47:07.962Z,953.37
2019-05-11T00:48:07.947Z,953.39
2019-05-11T00:49:07.938Z,953.35
2019-05-11T00:50:08.063Z,953.39
2019-05-11T00:51:07.898Z,953.31
2019-05-11T00:52:07.888Z,953.29
2019-05-11T00:53:07.944Z,953.21
2019-05-11T00:54:07.899Z,953.19
2019-05-11T00:55:07.860Z,953.15
2019-05-11T00:56:07.848Z,953.09
2019-05-11T00:57:07.839Z,953.09
2019-05-11T00:58:07.828Z,953.14
2019-05-11T00:59:21.015Z,953.20
2019-05-11T01:00:08.811Z,953.25
2019-05-11T01:01:07.796Z,953.26
2019-05-11T01:02:07.788Z,953.28
2019-05-11T01:03:07.976Z,953.32
2019-05-11T01:04:07.801Z,953.30
2019-05-11T01:05:08.692Z,953.31
2019-05-11T01:06:07.785Z,953.34
2019-05-11T01:07:07.729Z,953.32
2019-05-11T01:08:07.720Z,953.32
2019-05-11T01:09:07.718Z,953.32
2019-05-11T01:10:21.843Z,953.29
2019-05-11T01:11:08.687Z,953.32
2019-05-11T01:12:07.680Z,953.28
2019-05-11T01:13:07.838Z,953.23
2019-05-11T01:14:07.648Z,953.10
2019-05-11T01:15:07.658Z,953.07
2019-05-11T01:16:07.682Z,952.99
2019-05-11T01:17:07.616Z,952.99
2019-05-11T01:18:07.610Z,952.97
2019-05-11T01:19:07.588Z,953.03
2019-05-11T01:20:07.617Z,952.95
2019-05-11T01:21:07.585Z,952.87
2019-05-11T01:22:07.581Z,952.85
2019-05-11T01:23:15.068Z,952.83
2019-05-11T01:24:07.539Z,952.75
2019-05-11T01:25:07.592Z,952.76
2019-05-11T01:26:07.530Z,952.70
2019-05-11T01:27:07.520Z,952.71
2019-05-11T01:28:07.557Z,952.70
2019-05-11T01:29:07.586Z,952.68
2019-05-11T01:30:07.670Z,952.69
2019-05-11T01:31:07.490Z,952.72
2019-05-11T01:32:07.458Z,952.64
2019-05-11T01:33:08.352Z,952.66
2019-05-11T01:34:07.610Z,952.72
2019-05-11T01:35:07.429Z,952.71
2019-05-11T01:36:08.369Z,952.70
2019-05-11T01:37:07.423Z,952.66
2019-05-11T01:38:07.388Z,952.63
2019-05-11T01:39:07.381Z,952.57
2019-05-11T01:40:07.381Z,952.60
2019-05-11T01:41:07.378Z,952.69
2019-05-11T01:42:07.365Z,952.76
2019-05-11T01:43:07.504Z,952.63
2019-05-11T01:44:07.318Z,952.61
2019-05-11T01:45:07.475Z,952.62
2019-05-11T01:46:08.394Z,952.55
2019-05-11T01:47:07.331Z,952.55
2019-05-11T01:48:07.280Z,952.53
2019-05-11T01:49:07.270Z,952.54
2019-05-11T01:50:07.274Z,952.63
2019-05-11T01:51:07.332Z,952.61
2019-05-11T01:52:07.307Z,952.56
2019-05-11T01:53:07.238Z,952.57
2019-05-11T01:54:07.370Z,952.51
2019-05-11T01:55:07.180Z,952.51
2019-05-11T01:56:07.163Z,952.48
2019-05-11T01:57:07.211Z,952.50
2019-05-11T01:58:07.162Z,952.51
2019-05-11T01:59:07.448Z,952.44
2019-05-11T02:00:07.126Z,952.44
2019-05-11T02:01:07.176Z,952.41
2019-05-11T02:02:07.115Z,952.43
2019-05-11T02:03:07.114Z,952.41
2019-05-11T02:04:07.103Z,952.49
2019-05-11T02:05:07.062Z,952.50
2019-05-11T02:06:07.443Z,952.48
2019-05-11T02:07:07.078Z,952.50
2019-05-11T02:08:07.093Z,952.44
2019-05-11T02:09:07.170Z,952.42
2019-05-11T02:10:07.009Z,952.43
2019-05-11T02:11:15.476Z,952.39
2019-05-11T02:12:07.990Z,952.36
2019-05-11T02:13:06.977Z,952.33
2019-05-11T02:14:07.007Z,952.35
2019-05-11T02:15:06.974Z,952.27
2019-05-11T02:16:06.947Z,952.33
2019-05-11T02:17:06.995Z,952.32
2019-05-11T02:18:06.937Z,952.35
2019-05-11T02:19:07.133Z,952.32
2019-05-11T02:20:06.914Z,952.34
2019-05-11T02:21:06.936Z,952.40
2019-05-11T02:22:06.936Z,952.36
2019-05-11T02:23:06.867Z,952.39
2019-05-11T02:24:06.869Z,952.35
2019-05-11T02:25:06.862Z,952.35
2019-05-11T02:26:07.782Z,952.44
2019-05-11T02:27:06.839Z,952.34
2019-05-11T02:28:06.819Z,952.42
2019-05-11T02:29:06.977Z,952.45
2019-05-11T02:30:06.836Z,952.39
2019-05-11T02:31:06.783Z,952.40
2019-05-11T02:32:06.879Z,952.35
2019-05-11T02:33:06.752Z,952.38
2019-05-11T02:34:06.741Z,952.35
2019-05-11T02:35:07.507Z,952.33
2019-05-11T02:36:06.719Z,952.34
2019-05-11T02:37:06.784Z,952.39
2019-05-11T02:38:06.726Z,952.37
2019-05-11T02:39:06.700Z,952.37
2019-05-11T02:40:06.696Z,952.40
2019-05-11T02:41:06.668Z,952.37
2019-05-11T02:42:06.823Z,952.36
2019-05-11T02:43:06.661Z,952.34
2019-05-11T02:44:06.659Z,952.26
2019-05-11T02:45:06.638Z,952.33
2019-05-11T02:46:06.746Z,952.27
2019-05-11T02:47:06.622Z,952.26
2019-05-11T02:48:06.623Z,952.29
2019-05-11T02:49:07.578Z,952.25
2019-05-11T02:50:06.586Z,952.23
2019-05-11T02:51:06.562Z,952.21
2019-05-11T02:52:06.559Z,952.30
2019-05-11T02:53:06.604Z,952.21
2019-05-11T02:54:06.529Z,952.22
2019-05-11T02:55:06.522Z,952.19
2019-05-11T02:56:06.510Z,952.21
2019-05-11T02:57:06.500Z,952.25
2019-05-11T02:58:06.498Z,952.20
2019-05-11T02:59:07.095Z,952.14
2019-05-11T03:00:06.468Z,952.11
2019-05-11T03:01:06.454Z,952.03
2019-05-11T03:02:06.450Z,952.07
2019-05-11T03:03:06.438Z,952.05
2019-05-11T03:04:06.446Z,952.04
2019-05-11T03:05:06.418Z,952.02
2019-05-11T03:06:06.687Z,952.05
2019-05-11T03:07:06.378Z,952.00
2019-05-11T03:08:06.388Z,952.00
2019-05-11T03:09:06.377Z,951.98
2019-05-11T03:10:06.366Z,951.96
2019-05-11T03:11:06.336Z,951.93
2019-05-11T03:12:06.664Z,951.87
2019-05-11T03:13:06.352Z,951.83
2019-05-11T03:14:06.348Z,951.79
2019-05-11T03:15:06.478Z,951.79
2019-05-11T03:16:06.280Z,951.80
2019-05-11T03:17:06.277Z,951.79
2019-05-11T03:18:06.275Z,951.79
2019-05-11T03:19:06.277Z,951.79
2019-05-11T03:20:06.250Z,951.81
2019-05-11T03:21:06.222Z,951.83
2019-05-11T03:22:06.450Z,951.78
2019-05-11T03:23:06.210Z,951.74
2019-05-11T03:24:06.209Z,951.67
2019-05-11T03:25:07.144Z,951.74
2019-05-11T03:26:06.169Z,951.76
2019-05-11T03:27:06.158Z,951.70
2019-05-11T03:28:06.171Z,951.72
2019-05-11T03:29:06.167Z,951.70
2019-05-11T03:30:06.141Z,951.73
2019-05-11T03:31:06.113Z,951.66
2019-05-11T03:32:06.107Z,951.63
2019-05-11T03:33:06.118Z,951.66
2019-05-11T03:34:06.087Z,951.67
2019-05-11T03:35:06.106Z,951.62
2019-05-11T03:36:06.058Z,951.54
2019-05-11T03:37:06.048Z,951.62
2019-05-11T03:38:06.037Z,951.63
2019-05-11T03:39:06.019Z,951.63
2019-05-11T03:40:06.032Z,951.59
2019-05-11T03:41:06.023Z,951.61
2019-05-11T03:42:14.558Z,951.50
2019-05-11T03:43:06.979Z,951.41
2019-05-11T03:44:06.114Z,951.43
2019-05-11T03:45:05.981Z,951.45
2019-05-11T03:46:05.950Z,951.41
2019-05-11T03:47:05.938Z,951.33
2019-05-11T03:48:05.965Z,951.37
2019-05-11T03:49:05.919Z,951.37
2019-05-11T03:50:05.939Z,951.34
2019-05-11T03:51:05.919Z,951.37
2019-05-11T03:52:05.887Z,951.34
2019-05-11T03:53:05.889Z,951.35
2019-05-11T03:54:05.905Z,951.33
2019-05-11T03:55:05.852Z,951.38
2019-05-11T03:56:05.878Z,951.31
2019-05-11T03:57:05.837Z,951.36
2019-05-11T03:58:05.828Z,951.32
2019-05-11T03:59:05.816Z,951.33
2019-05-11T04:00:05.804Z,951.36
2019-05-11T04:01:05.801Z,951.27
2019-05-11T04:02:05.796Z,951.21
2019-05-11T04:03:05.772Z,951.25
2019-05-11T04:04:05.757Z,951.27
2019-05-11T04:05:05.746Z,951.25
2019-05-11T04:06:05.736Z,951.26
2019-05-11T04:07:07.384Z,951.28
2019-05-11T04:08:05.718Z,951.30
2019-05-11T04:09:05.701Z,951.36
2019-05-11T04:10:05.701Z,951.27
2019-05-11T04:11:05.676Z,951.30
2019-05-11T04:12:05.687Z,951.30
2019-05-11T04:13:05.656Z,951.36
2019-05-11T04:14:05.639Z,951.35
2019-05-11T04:15:05.627Z,951.27
2019-05-11T04:16:05.626Z,951.28
2019-05-11T04:17:05.624Z,951.31
2019-05-11T04:18:05.596Z,951.33
2019-05-11T04:19:05.606Z,951.33
2019-05-11T04:20:05.577Z,951.36
2019-05-11T04:21:05.559Z,951.37
2019-05-11T04:22:05.595Z,951.43
2019-05-11T04:23:05.544Z,951.44
2019-05-11T04:24:05.527Z,951.46
2019-05-11T04:25:05.543Z,951.42
2019-05-11T04:26:05.523Z,951.47
2019-05-11T04:27:05.517Z,951.45
2019-05-11T04:28:05.491Z,951.42
2019-05-11T04:29:05.509Z,951.51
2019-05-11T04:30:05.490Z,951.46
2019-05-11T04:31:05.458Z,951.33
2019-05-11T04:32:05.457Z,951.45
2019-05-11T04:33:05.437Z,951.45
2019-05-11T04:34:05.444Z,951.50
2019-05-11T04:35:05.423Z,951.54
2019-05-11T04:36:05.397Z,951.51
2019-05-11T04:37:06.334Z,951.57
2019-05-11T04:38:05.386Z,951.56
2019-05-11T04:39:05.402Z,951.59
2019-05-11T04:40:05.355Z,951.60
2019-05-11T04:41:05.350Z,951.64
2019-05-11T04:42:05.394Z,951.67
2019-05-11T04:43:05.331Z,951.79
2019-05-11T04:44:05.309Z,951.82
2019-05-11T04:45:06.305Z,951.82
2019-05-11T04:46:05.290Z,951.77
2019-05-11T04:47:05.308Z,951.83
2019-05-11T04:48:05.269Z,951.75
2019-05-11T04:49:05.276Z,951.70
2019-05-11T04:50:05.244Z,951.69
2019-05-11T04:51:05.235Z,951.77
2019-05-11T04:52:05.247Z,951.87
2019-05-11T04:53:05.236Z,951.90
2019-05-11T04:54:05.197Z,951.85
2019-05-11T04:55:05.212Z,951.88
2019-05-11T04:56:05.182Z,952.00
2019-05-11T04:57:05.173Z,951.82
2019-05-11T04:58:05.234Z,951.83
2019-05-11T04:59:05.165Z,951.81
2019-05-11T05:00:05.147Z,951.87
2019-05-11T05:01:05.177Z,951.76
2019-05-11T05:02:05.118Z,951.74
2019-05-11T05:03:05.113Z,951.76
2019-05-11T05:04:13.920Z,951.79
2019-05-11T05:05:06.084Z,951.72
2019-05-11T05:06:22.053Z,951.80
2019-05-11T05:07:10.838Z,951.75
2019-05-11T05:08:09.684Z,951.76
2019-05-11T05:09:05.123Z,951.88
2019-05-11T05:10:05.025Z,951.80
2019-05-11T05:11:05.011Z,951.82
2019-05-11T05:12:08.435Z,951.91
2019-05-11T05:13:10.524Z,951.93
2019-05-11T05:14:08.398Z,951.96
2019-05-11T05:15:05.965Z,951.98
2019-05-11T05:16:04.957Z,951.97
2019-05-11T05:17:04.964Z,952.01
2019-05-11T05:18:04.934Z,952.07
2019-05-11T05:19:04.928Z,952.12
2019-05-11T05:20:04.904Z,952.07
2019-05-11T05:21:04.903Z,952.15
2019-05-11T05:22:04.903Z,952.15
2019-05-11T05:23:04.876Z,952.17
2019-05-11T05:24:04.871Z,952.22
2019-05-11T05:25:04.863Z,952.22
2019-05-11T05:26:04.844Z,952.24
2019-05-11T05:27:04.854Z,952.24
2019-05-11T05:28:04.841Z,952.23
2019-05-11T05:29:04.813Z,952.26
2019-05-11T05:30:04.835Z,952.23
2019-05-11T05:31:04.803Z,952.22
2019-05-11T05:32:04.785Z,952.26
2019-05-11T05:33:04.785Z,952.27
2019-05-11T05:34:04.754Z,952.32
2019-05-11T05:35:04.787Z,952.30
2019-05-11T05:36:04.760Z,952.32
2019-05-11T05:37:04.723Z,952.38
2019-05-11T05:38:04.733Z,952.39
2019-05-11T05:39:08.447Z,952.32
2019-05-11T05:40:04.692Z,952.30
2019-05-11T05:41:04.686Z,952.30
2019-05-11T05:42:04.670Z,952.29
2019-05-11T05:43:04.672Z,952.31
2019-05-11T05:44:04.668Z,952.33
2019-05-11T05:45:04.653Z,952.42
2019-05-11T05:46:04.622Z,952.45
2019-05-11T05:47:04.615Z,952.42
2019-05-11T05:48:04.608Z,952.41
2019-05-11T05:49:04.610Z,952.46
2019-05-11T05:50:04.574Z,952.33
2019-05-11T05:51:04.590Z,952.40
2019-05-11T05:52:04.596Z,952.48
2019-05-11T05:53:04.555Z,952.53
2019-05-11T05:54:04.563Z,952.60
2019-05-11T05:55:04.521Z,952.55
2019-05-11T05:56:04.513Z,952.58
2019-05-11T05:57:04.516Z,952.60
2019-05-11T05:58:04.557Z,952.61
2019-05-11T05:59:04.493Z,952.67
2019-05-11T06:00:04.491Z,952.65
2019-05-11T06:01:04.461Z,952.67
2019-05-11T06:02:04.453Z,952.65
2019-05-11T06:03:04.438Z,952.65
2019-05-11T06:04:04.421Z,952.63
2019-05-11T06:05:04.432Z,952.60
2019-05-11T06:06:04.402Z,952.53
2019-05-11T06:07:04.404Z,952.50
2019-05-11T06:08:04.396Z,952.48
2019-05-11T06:09:04.534Z,952.50
2019-05-11T06:10:04.409Z,952.45
2019-05-11T06:11:04.342Z,952.36
2019-05-11T06:12:04.363Z,952.25
2019-05-11T06:13:04.331Z,952.04
2019-05-11T06:14:04.394Z,951.97
2019-05-11T06:15:04.321Z,951.91
2019-05-11T06:16:04.291Z,951.77
2019-05-11T06:17:04.280Z,951.70
2019-05-11T06:18:04.263Z,951.61
2019-05-11T06:19:04.266Z,951.50
2019-05-11T06:20:04.578Z,951.62
2019-05-11T06:21:04.251Z,951.71
2019-05-11T06:22:04.224Z,951.75
2019-05-11T06:23:04.226Z,951.71
2019-05-11T06:24:06.511Z,951.66
2019-05-11T06:25:04.220Z,951.64
2019-05-11T06:26:04.227Z,951.79
2019-05-11T06:27:04.201Z,951.74
2019-05-11T06:28:04.159Z,951.82
2019-05-11T06:29:04.150Z,951.84
2019-05-11T06:30:04.134Z,951.86
2019-05-11T06:31:04.129Z,951.89
2019-05-11T06:32:04.150Z,951.94
2019-05-11T06:33:04.100Z,951.86
2019-05-11T06:34:04.092Z,951.96
2019-05-11T06:35:04.093Z,951.98
2019-05-11T06:36:04.072Z,952.00
2019-05-11T06:37:04.085Z,952.08
2019-05-11T06:38:04.051Z,952.13
2019-05-11T06:39:04.053Z,952.15
2019-05-11T06:40:04.041Z,952.46
2019-05-11T06:41:04.010Z,952.34
2019-05-11T06:42:04.020Z,952.61
2019-05-11T06:43:04.019Z,952.49
2019-05-11T06:44:03.980Z,952.35
2019-05-11T06:45:03.977Z,952.37
2019-05-11T06:46:03.972Z,952.36
2019-05-11T06:47:03.951Z,952.56
2019-05-11T06:48:03.960Z,952.56
2019-05-11T06:49:03.931Z,952.53
2019-05-11T06:50:03.929Z,952.56
2019-05-11T06:51:03.910Z,952.61
2019-05-11T06:52:03.890Z,952.60
2019-05-11T06:53:03.919Z,952.56
2019-05-11T06:54:03.920Z,952.57
2019-05-11T06:55:03.873Z,952.58
2019-05-11T06:56:03.850Z,952.62
2019-05-11T06:57:03.841Z,952.58
2019-05-11T06:58:03.849Z,952.58
2019-05-11T06:59:03.839Z,952.55
2019-05-11T07:00:03.836Z,952.64
2019-05-11T07:01:03.790Z,952.48
2019-05-11T07:02:03.793Z,952.50
2019-05-11T07:03:03.772Z,952.50
2019-05-11T07:04:03.880Z,952.58
2019-05-11T07:05:03.763Z,952.55
2019-05-11T07:06:03.741Z,952.58
2019-05-11T07:07:03.753Z,952.56
2019-05-11T07:08:03.719Z,952.63
2019-05-11T07:09:03.709Z,952.53
2019-05-11T07:10:03.754Z,952.51
2019-05-11T07:11:03.679Z,952.48
2019-05-11T07:12:03.813Z,952.47
2019-05-11T07:13:03.714Z,952.46
2019-05-11T07:14:19.286Z,952.39
2019-05-11T07:15:04.640Z,952.42
2019-05-11T07:16:05.199Z,952.50
2019-05-11T07:17:03.614Z,952.54
2019-05-11T07:18:03.621Z,952.61
2019-05-11T07:19:03.632Z,952.56
2019-05-11T07:20:03.613Z,952.53
2019-05-11T07:21:03.582Z,952.52
2019-05-11T07:22:03.562Z,952.45
2019-05-11T07:23:03.646Z,952.55
2019-05-11T07:24:03.567Z,952.52
2019-05-11T07:25:03.611Z,952.43
2019-05-11T07:26:03.552Z,952.38
2019-05-11T07:27:03.500Z,952.39
2019-05-11T07:28:03.518Z,952.45
2019-05-11T07:29:03.499Z,952.54
2019-05-11T07:30:03.479Z,952.48
2019-05-11T07:31:03.474Z,952.46
2019-05-11T07:32:10.517Z,952.48
2019-05-11T07:33:04.447Z,952.49
2019-05-11T07:34:03.456Z,952.46
2019-05-11T07:35:03.417Z,952.57
2019-05-11T07:36:03.408Z,952.38
2019-05-11T07:37:03.397Z,952.42
2019-05-11T07:38:03.496Z,952.41
2019-05-11T07:39:03.397Z,952.44
2019-05-11T07:40:03.358Z,952.41
2019-05-11T07:41:03.347Z,952.42
2019-05-11T07:42:03.346Z,952.41
2019-05-11T07:43:06.412Z,952.36
2019-05-11T07:44:04.431Z,952.35
2019-05-11T07:45:03.322Z,952.40
2019-05-11T07:46:03.313Z,952.34
2019-05-11T07:47:03.312Z,952.35
2019-05-11T07:48:03.269Z,952.37
2019-05-11T07:49:03.288Z,952.37
2019-05-11T07:50:03.299Z,952.39
2019-05-11T07:51:03.237Z,952.31
2019-05-11T07:52:03.227Z,952.34
2019-05-11T07:53:03.227Z,952.29
2019-05-11T07:54:03.328Z,952.34
2019-05-11T07:55:03.270Z,952.31
2019-05-11T07:56:03.187Z,952.32
2019-05-11T07:57:03.195Z,952.28
2019-05-11T07:58:03.165Z,952.30
2019-05-11T07:59:03.273Z,952.28
2019-05-11T08:00:03.483Z,952.25
2019-05-11T08:01:03.216Z,952.27
2019-05-11T08:02:03.121Z,952.24
2019-05-11T08:03:03.229Z,952.30
2019-05-11T08:04:03.177Z,952.21
2019-05-11T08:05:03.487Z,952.22
2019-05-11T08:06:03.074Z,952.33
2019-05-11T08:07:03.136Z,952.37
2019-05-11T08:08:03.111Z,952.28
2019-05-11T08:09:03.038Z,952.28
2019-05-11T08:10:03.255Z,952.22
2019-05-11T08:11:03.017Z,952.27
2019-05-11T08:12:03.020Z,952.19
2019-05-11T08:13:03.007Z,952.29
2019-05-11T08:14:03.008Z,952.28
2019-05-11T08:15:09.050Z,952.24
2019-05-11T08:16:03.966Z,952.25
2019-05-11T08:17:02.974Z,952.24
2019-05-11T08:18:02.947Z,952.33
2019-05-11T08:19:06.612Z,952.21
2019-05-11T08:20:03.948Z,952.18
2019-05-11T08:21:02.919Z,952.18
2019-05-11T08:22:02.907Z,952.20
2019-05-11T08:23:03.908Z,952.11
2019-05-11T08:24:05.400Z,952.16
2019-05-11T08:25:09.011Z,952.20
2019-05-11T08:26:08.510Z,952.21
2019-05-11T08:27:02.849Z,952.19
2019-05-11T08:28:02.836Z,952.24
2019-05-11T08:29:02.823Z,952.17
2019-05-11T08:30:02.818Z,952.22
2019-05-11T08:31:02.836Z,952.19
2019-05-11T08:32:02.788Z,952.27
2019-05-11T08:33:02.796Z,952.26
2019-05-11T08:34:02.767Z,952.25
2019-05-11T08:35:02.873Z,952.23
2019-05-11T08:36:02.882Z,952.26
2019-05-11T08:37:02.821Z,952.26
2019-05-11T08:38:02.934Z,952.32
2019-05-11T08:39:02.801Z,952.27
2019-05-11T08:40:02.768Z,952.21
2019-05-11T08:41:02.758Z,952.24
2019-05-11T08:42:03.433Z,952.23
2019-05-11T08:43:02.769Z,952.21
2019-05-11T08:44:02.649Z,952.31
2019-05-11T08:45:16.155Z,952.25
2019-05-11T08:46:03.659Z,952.39
2019-05-11T08:47:02.630Z,952.30
2019-05-11T08:48:02.618Z,952.32
2019-05-11T08:49:02.599Z,952.33
2019-05-11T08:50:02.591Z,952.40
2019-05-11T08:51:02.578Z,952.30
2019-05-11T08:52:02.590Z,952.44
2019-05-11T08:53:02.561Z,952.40
2019-05-11T08:54:02.548Z,952.37
2019-05-11T08:55:02.539Z,952.34
2019-05-11T08:56:02.540Z,952.35
2019-05-11T08:57:02.530Z,952.35
2019-05-11T08:58:02.532Z,952.36
2019-05-11T08:59:02.489Z,952.35
2019-05-11T09:00:02.522Z,952.28
2019-05-11T09:01:02.469Z,952.31
2019-05-11T09:02:02.474Z,952.25
2019-05-11T09:03:02.459Z,952.29
2019-05-11T09:04:02.440Z,952.30
2019-05-11T09:05:02.431Z,952.25
2019-05-11T09:06:02.434Z,952.30
2019-05-11T09:07:02.419Z,952.17
2019-05-11T09:08:02.390Z,952.30
2019-05-11T09:09:02.391Z,952.23
2019-05-11T09:10:02.372Z,952.25
2019-05-11T09:11:02.370Z,952.20
2019-05-11T09:12:02.381Z,952.22
2019-05-11T09:13:02.338Z,952.25
2019-05-11T09:14:02.324Z,952.16
2019-05-11T09:15:02.321Z,952.19
2019-05-11T09:16:02.321Z,952.25
2019-05-11T09:17:02.336Z,952.17
2019-05-11T09:18:02.301Z,952.18
2019-05-11T09:19:02.291Z,952.12
2019-05-11T09:20:02.264Z,952.20
2019-05-11T09:21:02.270Z,952.23
2019-05-11T09:22:03.314Z,952.14
2019-05-11T09:23:02.306Z,952.13
2019-05-11T09:24:02.231Z,952.10
2019-05-11T09:25:02.211Z,952.21
2019-05-11T09:26:02.202Z,952.28
2019-05-11T09:27:02.194Z,952.31
2019-05-11T09:28:02.184Z,952.22
2019-05-11T09:29:02.170Z,952.19
2019-05-11T09:30:02.149Z,952.19
2019-05-11T09:31:02.141Z,952.28
2019-05-11T09:32:02.131Z,952.28
2019-05-11T09:33:02.126Z,952.43
2019-05-11T09:34:02.152Z,952.31
2019-05-11T09:35:02.095Z,952.43
2019-05-11T09:36:02.102Z,952.40
2019-05-11T09:37:02.082Z,952.38
2019-05-11T09:38:02.061Z,952.52
2019-05-11T09:39:02.071Z,952.43
2019-05-11T09:40:02.042Z,952.36
2019-05-11T09:41:02.061Z,952.35
2019-05-11T09:42:02.032Z,952.36
2019-05-11T09:43:02.010Z,952.31
2019-05-11T09:44:02.023Z,952.37
2019-05-11T09:45:02.009Z,952.40
2019-05-11T09:46:02.004Z,952.47
2019-05-11T09:47:02.812Z,952.39
2019-05-11T09:48:01.961Z,952.56
2019-05-11T09:49:01.965Z,952.42
2019-05-11T09:50:01.945Z,952.49
2019-05-11T09:51:01.936Z,952.47
2019-05-11T09:52:01.920Z,952.41
2019-05-11T09:53:01.900Z,952.44
2019-05-11T09:54:01.900Z,952.43
2019-05-11T09:55:01.891Z,952.42
2019-05-11T09:56:01.882Z,952.51
2019-05-11T09:57:01.862Z,952.44
2019-05-11T09:58:01.846Z,952.40
2019-05-11T09:59:01.835Z,952.41
2019-05-11T10:00:01.884Z,952.38
2019-05-11T10:01:01.809Z,952.44
2019-05-11T10:02:01.851Z,952.41
2019-05-11T10:03:01.791Z,952.37
2019-05-11T10:04:01.772Z,952.37
2019-05-11T10:05:01.861Z,952.39
2019-05-11T10:06:01.769Z,952.41
2019-05-11T10:07:01.749Z,952.31
2019-05-11T10:08:01.793Z,952.39
2019-05-11T10:09:01.721Z,952.42
2019-05-11T10:10:01.782Z,952.40
2019-05-11T10:11:01.700Z,952.43
2019-05-11T10:12:01.694Z,952.42
2019-05-11T10:13:01.683Z,952.38
2019-05-11T10:14:01.716Z,952.35
2019-05-11T10:15:01.682Z,952.45
2019-05-11T10:16:07.165Z,952.38
2019-05-11T10:17:02.632Z,952.39
2019-05-11T10:18:01.621Z,952.38
2019-05-11T10:19:01.621Z,952.42
2019-05-11T10:20:01.631Z,952.36
2019-05-11T10:21:01.590Z,952.39
2019-05-11T10:22:01.592Z,952.42
2019-05-11T10:23:01.571Z,952.56
2019-05-11T10:24:01.573Z,952.41
2019-05-11T10:25:01.563Z,952.43
2019-05-11T10:26:01.552Z,952.44
2019-05-11T10:27:01.534Z,952.49
2019-05-11T10:28:01.516Z,952.50
2019-05-11T10:29:01.516Z,952.42
2019-05-11T10:30:01.543Z,952.49
2019-05-11T10:31:01.530Z,952.51
2019-05-11T10:32:01.476Z,952.43
2019-05-11T10:33:01.453Z,952.52
2019-05-11T10:34:01.454Z,952.42
2019-05-11T10:35:01.463Z,952.44
2019-05-11T10:36:03.215Z,952.48
2019-05-11T10:37:01.438Z,952.46
2019-05-11T10:38:01.404Z,952.39
2019-05-11T10:39:01.393Z,952.37
2019-05-11T10:40:01.393Z,952.34
2019-05-11T10:41:01.493Z,952.35
2019-05-11T10:42:01.370Z,952.37
2019-05-11T10:43:01.351Z,952.29
2019-05-11T10:44:01.338Z,952.30
2019-05-11T10:45:01.589Z,952.29
2019-05-11T10:46:15.665Z,952.31
2019-05-11T10:47:02.304Z,952.24
2019-05-11T10:48:01.341Z,952.25
2019-05-11T10:49:01.281Z,952.28
2019-05-11T10:50:01.284Z,952.14
2019-05-11T10:51:01.263Z,952.27
2019-05-11T10:52:01.275Z,952.31
2019-05-11T10:53:01.241Z,952.11
2019-05-11T10:54:01.473Z,952.26
2019-05-11T10:55:01.388Z,952.33
2019-05-11T10:56:01.292Z,952.31
2019-05-11T10:57:01.191Z,952.28
2019-05-11T10:58:01.182Z,952.23
2019-05-11T10:59:01.181Z,952.17
2019-05-11T11:00:01.185Z,952.20
2019-05-11T11:01:01.164Z,952.24
2019-05-11T11:02:01.150Z,952.32
2019-05-11T11:03:01.134Z,952.43
2019-05-11T11:04:01.134Z,952.39
2019-05-11T11:05:01.105Z,952.31
2019-05-11T11:06:01.126Z,952.44
2019-05-11T11:07:01.088Z,952.51
2019-05-11T11:08:01.112Z,952.38
2019-05-11T11:09:01.072Z,952.39
2019-05-11T11:10:01.044Z,952.41
2019-05-11T11:11:01.081Z,952.35
2019-05-11T11:12:01.024Z,952.37
2019-05-11T11:13:01.042Z,952.42
2019-05-11T11:14:01.011Z,952.37
2019-05-11T11:15:00.994Z,952.40
2019-05-11T11:16:02.085Z,952.52
2019-05-11T11:17:00.974Z,952.32
2019-05-11T11:18:00.954Z,952.24
2019-05-11T11:19:00.968Z,952.23
2019-05-11T11:20:00.936Z,952.39
2019-05-11T11:21:00.944Z,952.28
2019-05-11T11:22:28.567Z,952.24
2019-05-11T11:23:01.912Z,952.29
2019-05-11T11:24:00.896Z,952.30
2019-05-11T11:25:00.887Z,952.38
2019-05-11T11:26:00.904Z,952.25
2019-05-11T11:27:00.954Z,952.33
2019-05-11T11:28:00.861Z,952.34
2019-05-11T11:29:00.892Z,952.42
2019-05-11T11:30:00.832Z,952.39
2019-05-11T11:31:01.115Z,952.35
2019-05-11T11:32:00.839Z,952.49
2019-05-11T11:33:00.803Z,952.48
2019-05-11T11:34:00.795Z,952.43
2019-05-11T11:35:01.002Z,952.51
2019-05-11T11:36:00.764Z,952.44
2019-05-11T11:37:00.765Z,952.40
2019-05-11T11:38:00.745Z,952.54
2019-05-11T11:39:00.744Z,952.56
2019-05-11T11:40:00.724Z,952.50
2019-05-11T11:41:00.728Z,952.55
2019-05-11T11:42:00.726Z,952.59
2019-05-11T11:43:00.685Z,952.52
2019-05-11T11:44:00.675Z,952.61
2019-05-11T11:45:00.712Z,952.63
2019-05-11T11:46:00.655Z,952.61
2019-05-11T11:47:00.727Z,952.69
2019-05-11T11:48:00.643Z,952.63
2019-05-11T11:49:00.630Z,952.59
2019-05-11T11:50:00.607Z,952.64
2019-05-11T11:51:00.605Z,952.62
2019-05-11T11:52:00.613Z,952.61
2019-05-11T11:53:00.585Z,952.54
2019-05-11T11:54:00.566Z,952.54
2019-05-11T11:55:00.559Z,952.61
2019-05-11T11:56:00.574Z,952.61
2019-05-11T11:57:00.566Z,952.58
2019-05-11T11:58:00.548Z,952.51
2019-05-11T11:59:00.521Z,952.40
2019-05-11T12:00:00.498Z,952.51
2019-05-11T12:01:00.495Z,952.62
2019-05-11T12:02:00.493Z,952.46
2019-05-11T12:03:00.502Z,952.56
2019-05-11T12:04:00.457Z,952.69
2019-05-11T12:05:00.470Z,952.63
2019-05-11T12:06:00.443Z,952.70
2019-05-11T12:07:00.429Z,952.77
2019-05-11T12:08:00.435Z,952.74
2019-05-11T12:09:00.429Z,952.79
2019-05-11T12:10:00.414Z,952.74
2019-05-11T12:11:00.384Z,952.63
2019-05-11T12:12:00.384Z,952.68
2019-05-11T12:13:00.363Z,952.73
2019-05-11T12:14:00.357Z,952.72
2019-05-11T12:15:00.337Z,952.70
2019-05-11T12:16:00.330Z,952.72
2019-05-11T12:17:07.573Z,952.64
2019-05-11T12:18:01.305Z,952.68
2019-05-11T12:19:00.298Z,952.75
2019-05-11T12:20:00.288Z,952.66
2019-05-11T12:21:00.275Z,952.74
2019-05-11T12:22:00.327Z,952.71
2019-05-11T12:23:00.264Z,952.71
2019-05-11T12:24:00.237Z,952.67
2019-05-11T12:25:00.394Z,952.65
2019-05-11T12:26:00.236Z,952.64
2019-05-11T12:27:00.207Z,952.69
2019-05-11T12:28:00.206Z,952.69